sensor_id;sensor_type;location;lat;lon;timestamp;pressure;altitude;pressure_sealevel;temperature;humidity
34328;BME280;20588;48.840;10.064;2022-11-02T00:00:40;97093.69;;;4.30;nan
34328;BME280;20588;48.840;10.064;2022-11-02T00:03:06;97093.84;;;4.28;nan
34328;BME280;20588;48.840;10.064;2022-11-02T00:05:32;97098.44;;;4.25;nan
34328;BME280;20588;48.840;10.064;2022-11-02T00:07:58;97105.59;;;4.21;nan
34328;BME280;20588;48.840;10.064;2022-11-02T00:10:25;97105.13;;;4.18;nan
34328;BME280;20588;48.840;10.064;2022-11-02T00:12:51;97101.13;;;4.15;nan
34328;BME280;20588;48.840;10.064;2022-11-02T00:15:18;97107.50;;;4.11;nan
34328;BME280;20588;48.840;10.064;2022-11-02T00:17:49;97107.50;;;4.11;nan
34328;BME280;20588;48.840;10.064;2022-11-02T00:20:17;97111.31;;;4.07;nan
34328;BME280;20588;48.840;10.064;2022-11-02T00:22:45;97112.91;;;4.08;nan
34328;BME280;20588;48.840;10.064;2022-11-02T00:25:14;97115.59;;;4.07;nan
34328;BME280;20588;48.840;10.064;2022-11-02T00:27:42;97113.03;;;4.07;nan
34328;BME280;20588;48.840;10.064;2022-11-02T00:30:10;97114.78;;;4.06;nan
34328;BME280;20588;48.840;10.064;2022-11-02T00:32:36;97121.81;;;4.04;nan
34328;BME280;20588;48.840;10.064;2022-11-02T00:35:02;97120.03;;;4.05;nan
34328;BME280;20588;48.840;10.064;2022-11-02T00:37:28;97118.91;;;3.99;nan
34328;BME280;20588;48.840;10.064;2022-11-02T00:39:54;97125.75;;;3.99;nan
34328;BME280;20588;48.840;10.064;2022-11-02T00:42:20;97120.81;;;3.97;nan
34328;BME280;20588;48.840;10.064;2022-11-02T00:44:46;97119.38;;;3.95;nan
34328;BME280;20588;48.840;10.064;2022-11-02T00:47:12;97128.28;;;3.91;nan
34328;BME280;20588;48.840;10.064;2022-11-02T00:49:38;97130.16;;;3.89;nan
34328;BME280;20588;48.840;10.064;2022-11-02T00:52:04;97128.75;;;3.86;nan
34328;BME280;20588;48.840;10.064;2022-11-02T00:54:30;97132.53;;;3.82;nan
34328;BME280;20588;48.840;10.064;2022-11-02T00:56:57;97136.69;;;3.83;nan
34328;BME280;20588;48.840;10.064;2022-11-02T00:59:23;97137.13;;;3.79;nan
34328;BME280;20588;48.840;10.064;2022-11-02T01:01:49;97133.78;;;3.78;nan
34328;BME280;20588;48.840;10.064;2022-11-02T01:04:16;97136.47;;;3.77;nan
34328;BME280;20588;48.840;10.064;2022-11-02T01:06:43;97136.47;;;3.77;nan
34328;BME280;20588;48.840;10.064;2022-11-02T01:09:10;97129.81;;;3.76;nan
34328;BME280;20588;48.840;10.064;2022-11-02T01:11:36;97119.78;;;3.74;nan
34328;BME280;20588;48.840;10.064;2022-11-02T01:14:03;97131.84;;;3.72;nan
34328;BME280;20588;48.840;10.064;2022-11-02T01:16:29;97122.28;;;3.66;nan
34328;BME280;20588;48.840;10.064;2022-11-02T01:18:57;97126.72;;;3.64;nan
34328;BME280;20588;48.840;10.064;2022-11-02T01:21:24;97127.97;;;3.60;nan
34328;BME280;20588;48.840;10.064;2022-11-02T01:23:50;97122.22;;;3.58;nan
34328;BME280;20588;48.840;10.064;2022-11-02T01:26:17;97129.88;;;3.58;nan
34328;BME280;20588;48.840;10.064;2022-11-02T01:28:43;97133.38;;;3.57;nan
34328;BME280;20588;48.840;10.064;2022-11-02T01:31:10;97132.41;;;3.58;nan
34328;BME280;20588;48.840;10.064;2022-11-02T01:33:37;97124.94;;;3.56;nan
34328;BME280;20588;48.840;10.064;2022-11-02T01:36:04;97135.25;;;3.55;nan
34328;BME280;20588;48.840;10.064;2022-11-02T01:38:32;97130.63;;;3.50;nan
34328;BME280;20588;48.840;10.064;2022-11-02T01:40:58;97125.69;;;3.49;nan
34328;BME280;20588;48.840;10.064;2022-11-02T01:43:35;97128.53;;;3.46;nan
34328;BME280;20588;48.840;10.064;2022-11-02T01:48:54;97123.09;;;3.41;nan
34328;BME280;20588;48.840;10.064;2022-11-02T01:51:32;97119.91;;;3.39;nan
34328;BME280;20588;48.840;10.064;2022-11-02T01:54:04;97125.16;;;3.37;nan
34328;BME280;20588;48.840;10.064;2022-11-02T01:56:32;97120.22;;;3.36;nan
34328;BME280;20588;48.840;10.064;2022-11-02T01:59:03;97118.91;;;3.32;nan
34328;BME280;20588;48.840;10.064;2022-11-02T02:01:32;97117.63;;;3.28;nan
34328;BME280;20588;48.840;10.064;2022-11-02T02:03:59;97116.03;;;3.27;nan
34328;BME280;20588;48.840;10.064;2022-11-02T02:06:26;97118.06;;;3.23;nan
34328;BME280;20588;48.840;10.064;2022-11-02T02:08:52;97119.03;;;3.22;nan
34328;BME280;20588;48.840;10.064;2022-11-02T02:11:40;97116.31;;;3.24;nan
34328;BME280;20588;48.840;10.064;2022-11-02T02:17:06;97121.72;;;3.21;nan
34328;BME280;20588;48.840;10.064;2022-11-02T02:30:36;97119.50;;;3.26;nan
34328;BME280;20588;48.840;10.064;2022-11-02T02:33:11;97109.47;;;3.24;nan
34328;BME280;20588;48.840;10.064;2022-11-02T02:35:54;97100.41;;;3.22;nan
34328;BME280;20588;48.840;10.064;2022-11-02T02:38:42;97097.72;;;3.23;nan
34328;BME280;20588;48.840;10.064;2022-11-02T02:41:33;97105.19;;;3.25;nan
34328;BME280;20588;48.840;10.064;2022-11-02T02:44:02;97105.19;;;3.25;nan
34328;BME280;20588;48.840;10.064;2022-11-02T02:46:34;97102.00;;;3.23;nan
34328;BME280;20588;48.840;10.064;2022-11-02T02:49:03;97112.16;;;3.23;nan
34328;BME280;20588;48.840;10.064;2022-11-02T02:51:32;97099.97;;;3.26;nan
34328;BME280;20588;48.840;10.064;2022-11-02T02:54:03;97097.56;;;3.25;nan
34328;BME280;20588;48.840;10.064;2022-11-02T02:56:38;97096.16;;;3.22;nan
34328;BME280;20588;48.840;10.064;2022-11-02T02:59:09;97092.13;;;3.20;nan
34328;BME280;20588;48.840;10.064;2022-11-02T03:01:40;97078.78;;;3.18;nan
34328;BME280;20588;48.840;10.064;2022-11-02T03:04:14;97067.00;;;3.17;nan
34328;BME280;20588;48.840;10.064;2022-11-02T03:06:42;97061.94;;;3.17;nan
34328;BME280;20588;48.840;10.064;2022-11-02T03:17:20;97077.63;;;3.12;nan
34328;BME280;20588;48.840;10.064;2022-11-02T03:25:17;97074.47;;;3.10;nan
34328;BME280;20588;48.840;10.064;2022-11-02T03:28:34;97079.41;;;3.12;nan
34328;BME280;20588;48.840;10.064;2022-11-02T03:30:45;97078.75;;;3.10;nan
34328;BME280;20588;48.840;10.064;2022-11-02T03:33:17;97086.38;;;3.10;nan
34328;BME280;20588;48.840;10.064;2022-11-02T03:35:58;97082.88;;;3.11;nan
34328;BME280;20588;48.840;10.064;2022-11-02T03:38:44;97091.28;;;3.11;nan
34328;BME280;20588;48.840;10.064;2022-11-02T03:41:13;97091.44;;;3.10;nan
34328;BME280;20588;48.840;10.064;2022-11-02T03:43:40;97091.59;;;3.08;nan
34328;BME280;20588;48.840;10.064;2022-11-02T03:46:08;97088.09;;;3.09;nan
34328;BME280;20588;48.840;10.064;2022-11-02T03:48:39;97084.78;;;3.09;nan
34328;BME280;20588;48.840;10.064;2022-11-02T03:51:10;97097.63;;;3.07;nan
34328;BME280;20588;48.840;10.064;2022-11-02T03:53:57;97091.75;;;3.07;nan
34328;BME280;20588;48.840;10.064;2022-11-02T03:56:43;97100.19;;;3.07;nan
34328;BME280;20588;48.840;10.064;2022-11-02T03:59:11;97095.09;;;3.07;nan
34328;BME280;20588;48.840;10.064;2022-11-02T04:01:50;97097.50;;;3.09;nan
34328;BME280;20588;48.840;10.064;2022-11-02T04:04:17;97101.75;;;3.08;nan
34328;BME280;20588;48.840;10.064;2022-11-02T04:06:44;97099.22;;;3.08;nan
34328;BME280;20588;48.840;10.064;2022-11-02T04:09:12;97102.44;;;3.10;nan
34328;BME280;20588;48.840;10.064;2022-11-02T04:11:38;97109.91;;;3.12;nan
34328;BME280;20588;48.840;10.064;2022-11-02T04:14:23;97097.97;;;3.12;nan
34328;BME280;20588;48.840;10.064;2022-11-02T04:17:06;97099.44;;;3.15;nan
34328;BME280;20588;48.840;10.064;2022-11-02T04:19:50;97104.22;;;3.18;nan
34328;BME280;20588;48.840;10.064;2022-11-02T04:22:17;97104.69;;;3.21;nan
34328;BME280;20588;48.840;10.064;2022-11-02T04:25:03;97111.09;;;3.25;nan
34328;BME280;20588;48.840;10.064;2022-11-02T04:27:45;97113.34;;;3.28;nan
34328;BME280;20588;48.840;10.064;2022-11-02T04:30:13;97118.28;;;3.30;nan
34328;BME280;20588;48.840;10.064;2022-11-02T04:32:44;97123.69;;;3.35;nan
34328;BME280;20588;48.840;10.064;2022-11-02T04:35:29;97120.53;;;3.33;nan
34328;BME280;20588;48.840;10.064;2022-11-02T04:37:56;97115.28;;;3.34;nan
34328;BME280;20588;48.840;10.064;2022-11-02T04:40:41;97113.38;;;3.36;nan
34328;BME280;20588;48.840;10.064;2022-11-02T04:43:08;97121.81;;;3.37;nan
34328;BME280;20588;48.840;10.064;2022-11-02T04:45:34;97127.41;;;3.40;nan
34328;BME280;20588;48.840;10.064;2022-11-02T04:48:02;97127.25;;;3.42;nan
34328;BME280;20588;48.840;10.064;2022-11-02T04:50:29;97121.84;;;3.45;nan
34328;BME280;20588;48.840;10.064;2022-11-02T04:52:57;97124.09;;;3.48;nan
34328;BME280;20588;48.840;10.064;2022-11-02T04:55:23;97124.72;;;3.50;nan
34328;BME280;20588;48.840;10.064;2022-11-02T04:57:50;97130.47;;;3.52;nan
34328;BME280;20588;48.840;10.064;2022-11-02T05:00:16;97132.06;;;3.53;nan
34328;BME280;20588;48.840;10.064;2022-11-02T05:02:44;97130.16;;;3.55;nan
34328;BME280;20588;48.840;10.064;2022-11-02T05:05:11;97129.88;;;3.58;nan
34328;BME280;20588;48.840;10.064;2022-11-02T05:07:37;97127.97;;;3.60;nan
34328;BME280;20588;48.840;10.064;2022-11-02T05:10:03;97130.22;;;3.63;nan
34328;BME280;20588;48.840;10.064;2022-11-02T05:12:30;97130.06;;;3.64;nan
34328;BME280;20588;48.840;10.064;2022-11-02T05:14:56;97127.38;;;3.66;nan
34328;BME280;20588;48.840;10.064;2022-11-02T05:17:22;97121.16;;;3.68;nan
34328;BME280;20588;48.840;10.064;2022-11-02T05:19:48;97129.31;;;3.72;nan
34328;BME280;20588;48.840;10.064;2022-11-02T05:22:14;97120.72;;;3.73;nan
34328;BME280;20588;48.840;10.064;2022-11-02T05:24:40;97131.84;;;3.72;nan
34328;BME280;20588;48.840;10.064;2022-11-02T05:27:08;97124.22;;;3.72;nan
34328;BME280;20588;48.840;10.064;2022-11-02T05:29:34;97128.34;;;3.73;nan
34328;BME280;20588;48.840;10.064;2022-11-02T05:32:00;97124.06;;;3.73;nan
34328;BME280;20588;48.840;10.064;2022-11-02T05:34:26;97125.31;;;3.69;nan
34328;BME280;20588;48.840;10.064;2022-11-02T05:36:52;97136.44;;;3.68;nan
34328;BME280;20588;48.840;10.064;2022-11-02T05:39:18;97135.94;;;3.65;nan
34328;BME280;20588;48.840;10.064;2022-11-02T05:41:44;97135.47;;;3.61;nan
34328;BME280;20588;48.840;10.064;2022-11-02T05:44:10;97134.00;;;3.59;nan
34328;BME280;20588;48.840;10.064;2022-11-02T05:46:36;97140.34;;;3.55;nan
34328;BME280;20588;48.840;10.064;2022-11-02T05:49:02;97135.25;;;3.55;nan
34328;BME280;20588;48.840;10.064;2022-11-02T05:51:28;97136.06;;;3.55;nan
34328;BME280;20588;48.840;10.064;2022-11-02T05:53:54;97138.94;;;3.60;nan
34328;BME280;20588;48.840;10.064;2022-11-02T05:56:20;97137.19;;;3.61;nan
34328;BME280;20588;48.840;10.064;2022-11-02T05:58:46;97141.31;;;3.62;nan
34328;BME280;20588;48.840;10.064;2022-11-02T06:01:12;97150.41;;;3.64;nan
34328;BME280;20588;48.840;10.064;2022-11-02T06:03:38;97148.66;;;3.65;nan
34328;BME280;20588;48.840;10.064;2022-11-02T06:06:06;97146.91;;;3.65;nan
34328;BME280;20588;48.840;10.064;2022-11-02T06:08:36;97149.59;;;3.64;nan
34328;BME280;20588;48.840;10.064;2022-11-02T06:11:11;97148.22;;;3.69;nan
34328;BME280;20588;48.840;10.064;2022-11-02T06:13:38;97153.16;;;3.71;nan
34328;BME280;20588;48.840;10.064;2022-11-02T06:16:07;97150.00;;;3.77;nan
34328;BME280;20588;48.840;10.064;2022-11-02T06:18:34;97151.78;;;3.85;nan
34328;BME280;20588;48.840;10.064;2022-11-02T06:21:01;97156.13;;;3.92;nan
34328;BME280;20588;48.840;10.064;2022-11-02T06:23:28;97161.38;;;3.99;nan
34328;BME280;20588;48.840;10.064;2022-11-02T06:25:56;97157.28;;;4.06;nan
34328;BME280;20588;48.840;10.064;2022-11-02T06:28:23;97161.63;;;4.13;nan
34328;BME280;20588;48.840;10.064;2022-11-02T06:30:49;97152.41;;;4.20;nan
34328;BME280;20588;48.840;10.064;2022-11-02T06:33:17;97149.56;;;4.31;nan
34328;BME280;20588;48.840;10.064;2022-11-02T06:35:45;97155.97;;;4.43;nan
34328;BME280;20588;48.840;10.064;2022-11-02T06:38:11;97154.72;;;4.55;nan
34328;BME280;20588;48.840;10.064;2022-11-02T06:40:38;97157.59;;;4.68;nan
34328;BME280;20588;48.840;10.064;2022-11-02T06:43:04;97161.59;;;4.79;nan
34328;BME280;20588;48.840;10.064;2022-11-02T06:45:30;97164.31;;;4.93;nan
34328;BME280;20588;48.840;10.064;2022-11-02T06:47:56;97171.81;;;5.11;nan
34328;BME280;20588;48.840;10.064;2022-11-02T06:50:22;97179.47;;;5.27;nan
34328;BME280;20588;48.840;10.064;2022-11-02T06:52:50;97171.47;;;5.54;nan
34328;BME280;20588;48.840;10.064;2022-11-02T06:55:17;97185.28;;;5.76;nan
34328;BME280;20588;48.840;10.064;2022-11-02T06:57:44;97182.25;;;5.96;nan
34328;BME280;20588;48.840;10.064;2022-11-02T07:00:14;97186.28;;;6.21;nan
34328;BME280;20588;48.840;10.064;2022-11-02T07:02:43;97192.06;;;6.54;nan
34328;BME280;20588;48.840;10.064;2022-11-02T07:05:10;97198.56;;;6.87;nan
34328;BME280;20588;48.840;10.064;2022-11-02T07:07:36;97207.06;;;7.10;nan
34328;BME280;20588;48.840;10.064;2022-11-02T07:10:02;97210.13;;;7.28;nan
34328;BME280;20588;48.840;10.064;2022-11-02T07:12:31;97203.28;;;7.43;nan
34328;BME280;20588;48.840;10.064;2022-11-02T07:14:57;97209.75;;;7.68;nan
34328;BME280;20588;48.840;10.064;2022-11-02T07:17:23;97207.94;;;8.06;nan
34328;BME280;20588;48.840;10.064;2022-11-02T07:19:49;97214.03;;;8.48;nan
34328;BME280;20588;48.840;10.064;2022-11-02T07:22:15;97218.19;;;8.85;nan
34328;BME280;20588;48.840;10.064;2022-11-02T07:24:42;97221.78;;;9.26;nan
34328;BME280;20588;48.840;10.064;2022-11-02T07:27:08;97227.56;;;9.56;nan
34328;BME280;20588;48.840;10.064;2022-11-02T07:29:34;97229.75;;;9.86;nan
34328;BME280;20588;48.840;10.064;2022-11-02T07:32:00;97231.16;;;10.16;nan
34328;BME280;20588;48.840;10.064;2022-11-02T07:34:26;97234.50;;;10.44;nan
34328;BME280;20588;48.840;10.064;2022-11-02T07:36:53;97238.19;;;10.76;nan
34328;BME280;20588;48.840;10.064;2022-11-02T07:39:19;97250.00;;;11.18;nan
34328;BME280;20588;48.840;10.064;2022-11-02T07:41:46;97241.34;;;11.64;nan
34328;BME280;20588;48.840;10.064;2022-11-02T07:44:12;97250.84;;;12.03;nan
34328;BME280;20588;48.840;10.064;2022-11-02T07:46:38;97240.06;;;12.32;nan
34328;BME280;20588;48.840;10.064;2022-11-02T07:49:04;97242.59;;;12.51;nan
34328;BME280;20588;48.840;10.064;2022-11-02T07:51:30;97247.53;;;12.59;nan
34328;BME280;20588;48.840;10.064;2022-11-02T07:53:56;97239.78;;;12.66;nan
34328;BME280;20588;48.840;10.064;2022-11-02T07:56:22;97250.47;;;12.76;nan
34328;BME280;20588;48.840;10.064;2022-11-02T07:58:48;97247.41;;;12.92;nan
34328;BME280;20588;48.840;10.064;2022-11-02T08:01:14;97255.91;;;13.06;nan
34328;BME280;20588;48.840;10.064;2022-11-02T08:03:40;97252.69;;;13.10;nan
34328;BME280;20588;48.840;10.064;2022-11-02T08:06:06;97246.66;;;13.23;nan
34328;BME280;20588;48.840;10.064;2022-11-02T08:08:32;97255.97;;;13.30;nan
34328;BME280;20588;48.840;10.064;2022-11-02T08:11:04;97248.16;;;13.43;nan
34328;BME280;20588;48.840;10.064;2022-11-02T08:13:30;97239.75;;;13.48;nan
34328;BME280;20588;48.840;10.064;2022-11-02T08:15:56;97250.84;;;13.55;nan
34328;BME280;20588;48.840;10.064;2022-11-02T08:18:24;97252.16;;;13.64;nan
34328;BME280;20588;48.840;10.064;2022-11-02T08:20:51;97255.09;;;13.92;nan
34328;BME280;20588;48.840;10.064;2022-11-02T08:23:19;97252.03;;;14.01;nan
34328;BME280;20588;48.840;10.064;2022-11-02T08:25:47;97255.94;;;14.10;nan
34328;BME280;20588;48.840;10.064;2022-11-02T08:28:25;97255.56;;;14.31;nan
34328;BME280;20588;48.840;10.064;2022-11-02T08:30:52;97259.81;;;14.62;nan
34328;BME280;20588;48.840;10.064;2022-11-02T08:33:19;97260.09;;;14.90;nan
34328;BME280;20588;48.840;10.064;2022-11-02T08:35:46;97268.28;;;15.35;nan
34328;BME280;20588;48.840;10.064;2022-11-02T08:38:13;97269.56;;;15.44;nan
34328;BME280;20588;48.840;10.064;2022-11-02T08:40:40;97267.66;;;15.21;nan
34328;BME280;20588;48.840;10.064;2022-11-02T08:43:11;97268.19;;;15.12;nan
34328;BME280;20588;48.840;10.064;2022-11-02T08:45:39;97276.72;;;15.01;nan
34328;BME280;20588;48.840;10.064;2022-11-02T08:48:07;97283.94;;;14.81;nan
34328;BME280;20588;48.840;10.064;2022-11-02T08:50:34;97275.38;;;14.62;nan
34328;BME280;20588;48.840;10.064;2022-11-02T08:53:01;97285.34;;;14.40;nan
34328;BME280;20588;48.840;10.064;2022-11-02T08:55:27;97286.09;;;14.23;nan
34328;BME280;20588;48.840;10.064;2022-11-02T08:57:55;97289.25;;;14.07;nan
34328;BME280;20588;48.840;10.064;2022-11-02T09:00:23;97287.84;;;14.04;nan
34328;BME280;20588;48.840;10.064;2022-11-02T09:03:10;97294.84;;;14.04;nan
34328;BME280;20588;48.840;10.064;2022-11-02T09:05:39;97298.06;;;13.99;nan
34328;BME280;20588;48.840;10.064;2022-11-02T09:08:11;97298.13;;;13.93;nan
34328;BME280;20588;48.840;10.064;2022-11-02T09:10:38;97293.72;;;13.93;nan
34328;BME280;20588;48.840;10.064;2022-11-02T09:13:06;97296.22;;;14.06;nan
34328;BME280;20588;48.840;10.064;2022-11-02T09:15:34;97293.78;;;14.11;nan
34328;BME280;20588;48.840;10.064;2022-11-02T09:18:00;97304.13;;;14.36;nan
34328;BME280;20588;48.840;10.064;2022-11-02T09:20:27;97303.81;;;14.69;nan
34328;BME280;20588;48.840;10.064;2022-11-02T09:22:53;97298.63;;;15.16;nan
34328;BME280;20588;48.840;10.064;2022-11-02T09:25:19;97305.56;;;16.04;nan
34328;BME280;20588;48.840;10.064;2022-11-02T09:27:45;97296.66;;;16.70;nan
34328;BME280;20588;48.840;10.064;2022-11-02T09:30:12;97299.28;;;17.49;nan
34328;BME280;20588;48.840;10.064;2022-11-02T09:32:38;97298.94;;;17.73;nan
34328;BME280;20588;48.840;10.064;2022-11-02T09:35:07;97300.59;;;17.79;nan
34328;BME280;20588;48.840;10.064;2022-11-02T09:37:34;97298.03;;;17.68;nan
34328;BME280;20588;48.840;10.064;2022-11-02T09:40:00;97310.19;;;17.62;nan
34328;BME280;20588;48.840;10.064;2022-11-02T09:45:24;97303.47;;;18.87;nan
34328;BME280;20588;48.840;10.064;2022-11-02T09:48:11;97305.56;;;19.55;nan
34328;BME280;20588;48.840;10.064;2022-11-02T09:50:45;97301.69;;;20.21;nan
34328;BME280;20588;48.840;10.064;2022-11-02T09:53:19;97304.00;;;20.54;nan
34328;BME280;20588;48.840;10.064;2022-11-02T09:55:58;97302.47;;;20.58;nan
34328;BME280;20588;48.840;10.064;2022-11-02T09:58:38;97308.59;;;20.37;nan
34328;BME280;20588;48.840;10.064;2022-11-02T10:06:47;97307.91;;;19.83;nan
34328;BME280;20588;48.840;10.064;2022-11-02T10:09:34;97308.63;;;20.10;nan
34328;BME280;20588;48.840;10.064;2022-11-02T10:12:11;97311.88;;;20.54;nan
34328;BME280;20588;48.840;10.064;2022-11-02T10:14:47;97304.16;;;20.89;nan
34328;BME280;20588;48.840;10.064;2022-11-02T10:17:21;97305.66;;;21.21;nan
34328;BME280;20588;48.840;10.064;2022-11-02T10:19:55;97299.06;;;21.09;nan
34328;BME280;20588;48.840;10.064;2022-11-02T10:22:26;97301.94;;;21.12;nan
34328;BME280;20588;48.840;10.064;2022-11-02T10:24:54;97299.53;;;21.01;nan
34328;BME280;20588;48.840;10.064;2022-11-02T10:27:27;97315.38;;;20.74;nan
34328;BME280;20588;48.840;10.064;2022-11-02T10:30:18;97308.50;;;20.63;nan
34328;BME280;20588;48.840;10.064;2022-11-02T10:32:43;97313.97;;;20.57;nan
34328;BME280;20588;48.840;10.064;2022-11-02T10:35:25;97310.53;;;20.51;nan
34328;BME280;20588;48.840;10.064;2022-11-02T10:40:41;97318.28;;;20.05;nan
34328;BME280;20588;48.840;10.064;2022-11-02T10:51:30;97301.66;;;19.31;nan
34328;BME280;20588;48.840;10.064;2022-11-02T10:53:57;97306.31;;;19.50;nan
34328;BME280;20588;48.840;10.064;2022-11-02T10:56:29;97313.09;;;19.51;nan
34328;BME280;20588;48.840;10.064;2022-11-02T11:01:27;97311.47;;;19.45;nan
34328;BME280;20588;48.840;10.064;2022-11-02T11:04:20;97302.72;;;19.13;nan
34328;BME280;20588;48.840;10.064;2022-11-02T11:06:47;97301.97;;;18.91;nan
34328;BME280;20588;48.840;10.064;2022-11-02T11:09:24;97298.69;;;18.79;nan
34328;BME280;20588;48.840;10.064;2022-11-02T11:12:06;97293.31;;;18.69;nan
34328;BME280;20588;48.840;10.064;2022-11-02T11:14:47;97305.78;;;18.46;nan
34328;BME280;20588;48.840;10.064;2022-11-02T11:17:17;97288.88;;;18.32;nan
34328;BME280;20588;48.840;10.064;2022-11-02T11:19:49;97293.97;;;18.38;nan
34328;BME280;20588;48.840;10.064;2022-11-02T11:22:31;97296.44;;;18.33;nan
34328;BME280;20588;48.840;10.064;2022-11-02T11:25:22;97290.63;;;18.43;nan
34328;BME280;20588;48.840;10.064;2022-11-02T11:27:54;97288.84;;;18.65;nan
34328;BME280;20588;48.840;10.064;2022-11-02T11:30:37;97285.94;;;18.61;nan
34328;BME280;20588;48.840;10.064;2022-11-02T11:33:05;97293.56;;;18.68;nan
34328;BME280;20588;48.840;10.064;2022-11-02T11:35:33;97292.25;;;18.65;nan
34328;BME280;20588;48.840;10.064;2022-11-02T11:38:08;97285.22;;;18.66;nan
34328;BME280;20588;48.840;10.064;2022-11-02T11:40:44;97282.34;;;18.89;nan
34328;BME280;20588;48.840;10.064;2022-11-02T11:43:14;97290.41;;;19.09;nan
34328;BME280;20588;48.840;10.064;2022-11-02T11:45:59;97288.53;;;19.26;nan
34328;BME280;20588;48.840;10.064;2022-11-02T11:51:20;97283.00;;;19.22;nan
34328;BME280;20588;48.840;10.064;2022-11-02T11:54:21;97272.47;;;19.12;nan
34328;BME280;20588;48.840;10.064;2022-11-02T11:56:50;97276.53;;;19.03;nan
34328;BME280;20588;48.840;10.064;2022-11-02T12:02:24;97277.13;;;18.89;nan
34328;BME280;20588;48.840;10.064;2022-11-02T12:04:57;97276.78;;;18.80;nan
34328;BME280;20588;48.840;10.064;2022-11-02T12:12:48;97265.66;;;18.47;nan
34328;BME280;20588;48.840;10.064;2022-11-02T12:15:32;97270.53;;;18.27;nan
34328;BME280;20588;48.840;10.064;2022-11-02T12:20:48;97271.00;;;18.02;nan
34328;BME280;20588;48.840;10.064;2022-11-02T12:33:47;97262.22;;;17.30;nan
34328;BME280;20588;48.840;10.064;2022-11-02T12:42:31;97250.94;;;17.25;nan
34328;BME280;20588;48.840;10.064;2022-11-02T12:47:44;97247.56;;;17.69;nan
34328;BME280;20588;48.840;10.064;2022-11-02T12:55:24;97240.69;;;18.51;nan
34328;BME280;20588;48.840;10.064;2022-11-02T12:57:56;97242.31;;;18.78;nan
34328;BME280;20588;48.840;10.064;2022-11-02T13:00:24;97234.97;;;18.97;nan
34328;BME280;20588;48.840;10.064;2022-11-02T13:03:12;97232.34;;;18.97;nan
34328;BME280;20588;48.840;10.064;2022-11-02T13:05:47;97232.81;;;19.15;nan
34328;BME280;20588;48.840;10.064;2022-11-02T13:08:20;97233.00;;;19.30;nan
34328;BME280;20588;48.840;10.064;2022-11-02T13:10:58;97233.53;;;19.32;nan
34328;BME280;20588;48.840;10.064;2022-11-02T13:13:46;97227.34;;;19.43;nan
34328;BME280;20588;48.840;10.064;2022-11-02T13:16:15;97215.91;;;19.44;nan
34328;BME280;20588;48.840;10.064;2022-11-02T13:18:49;97224.13;;;19.31;nan
34328;BME280;20588;48.840;10.064;2022-11-02T13:21:20;97230.13;;;19.32;nan
34328;BME280;20588;48.840;10.064;2022-11-02T13:23:54;97217.59;;;19.29;nan
34328;BME280;20588;48.840;10.064;2022-11-02T13:28:54;97221.75;;;19.30;nan
34328;BME280;20588;48.840;10.064;2022-11-02T13:33:59;97221.09;;;18.91;nan
34328;BME280;20588;48.840;10.064;2022-11-02T13:36:27;97213.53;;;18.68;nan
34328;BME280;20588;48.840;10.064;2022-11-02T13:39:02;97208.59;;;18.50;nan
34328;BME280;20588;48.840;10.064;2022-11-02T13:47:10;97215.81;;;18.27;nan
34328;BME280;20588;48.840;10.064;2022-11-02T13:49:50;97201.88;;;18.16;nan
34328;BME280;20588;48.840;10.064;2022-11-02T13:53:03;97209.06;;;18.09;nan
34328;BME280;20588;48.840;10.064;2022-11-02T13:55:19;97212.41;;;18.05;nan
34328;BME280;20588;48.840;10.064;2022-11-02T13:57:51;97209.63;;;18.11;nan
34328;BME280;20588;48.840;10.064;2022-11-02T14:00:28;97200.47;;;18.09;nan
34328;BME280;20588;48.840;10.064;2022-11-02T14:05:52;97215.66;;;17.95;nan
34328;BME280;20588;48.840;10.064;2022-11-02T14:08:34;97209.22;;;17.81;nan
34328;BME280;20588;48.840;10.064;2022-11-02T14:11:22;97211.88;;;17.69;nan
34328;BME280;20588;48.840;10.064;2022-11-02T14:29:50;97213.03;;;17.01;nan
34328;BME280;20588;48.840;10.064;2022-11-02T14:46:05;97215.91;;;16.37;nan
34328;BME280;20588;48.840;10.064;2022-11-02T14:48:49;97234.44;;;16.28;nan
34328;BME280;20588;48.840;10.064;2022-11-02T14:51:33;97223.38;;;16.21;nan
34328;BME280;20588;48.840;10.064;2022-11-02T14:54:03;97223.06;;;16.06;nan
34328;BME280;20588;48.840;10.064;2022-11-02T14:59:25;97206.66;;;15.83;nan
34328;BME280;20588;48.840;10.064;2022-11-02T15:01:57;97213.00;;;15.75;nan
34328;BME280;20588;48.840;10.064;2022-11-02T15:04:25;97211.97;;;15.65;nan
34328;BME280;20588;48.840;10.064;2022-11-02T15:06:56;97209.50;;;15.58;nan
34328;BME280;20588;48.840;10.064;2022-11-02T15:12:39;97195.75;;;15.28;nan
34328;BME280;20588;48.840;10.064;2022-11-02T15:15:33;97195.94;;;15.15;nan
34328;BME280;20588;48.840;10.064;2022-11-02T15:29:03;97192.13;;;14.40;nan
34328;BME280;20588;48.840;10.064;2022-11-02T15:31:33;97194.06;;;14.27;nan
34328;BME280;20588;48.840;10.064;2022-11-02T15:34:04;97190.81;;;14.13;nan
34328;BME280;20588;48.840;10.064;2022-11-02T15:36:37;97200.94;;;13.97;nan
34328;BME280;20588;48.840;10.064;2022-11-02T15:39:06;97206.06;;;13.79;nan
34328;BME280;20588;48.840;10.064;2022-11-02T15:42:12;97199.91;;;13.55;nan
34328;BME280;20588;48.840;10.064;2022-11-02T15:45:03;97196.78;;;13.22;nan
34328;BME280;20588;48.840;10.064;2022-11-02T15:56:04;97199.53;;;12.39;nan
34328;BME280;20588;48.840;10.064;2022-11-02T16:01:27;97190.53;;;11.97;nan
34328;BME280;20588;48.840;10.064;2022-11-02T16:04:02;97183.44;;;11.80;nan
34328;BME280;20588;48.840;10.064;2022-11-02T16:06:35;97197.34;;;11.66;nan
34328;BME280;20588;48.840;10.064;2022-11-02T16:09:23;97194.13;;;11.51;nan
34328;BME280;20588;48.840;10.064;2022-11-02T16:14:38;97187.97;;;11.13;nan
34328;BME280;20588;48.840;10.064;2022-11-02T16:17:04;97197.22;;;10.94;nan
34328;BME280;20588;48.840;10.064;2022-11-02T16:19:30;97188.09;;;10.78;nan
34328;BME280;20588;48.840;10.064;2022-11-02T16:21:57;97198.34;;;10.65;nan